Derby Field


Codes: KLOL/
Name: Derby Field
City: Lovelock
Country: United States
Elevation: 3904 ft.
Wikipedia:

Photos at Derby Field


   Photos courtesy of SpottingLog. You can add your own sightings and photos by signing up for a free trial today.



No photos found.

Weather at Derby Field


Time (UTC)DescriptionTempratureWindCloud coverageVisibilityPressureHumidity
13-Jun-2024 03:00Clear Sky36°C4 mph, S0%10000m1012hPa11%
13-Jun-2024 06:00Few Clouds34°C20 mph, NW12%10000m1010hPa13%
13-Jun-2024 09:00Few Clouds29°C7 mph, NW14%10000m1009hPa16%
13-Jun-2024 12:00Scattered Clouds23°C7 mph, N33%10000m1009hPa22%
13-Jun-2024 15:00Few Clouds27°C4 mph, N11%10000m1010hPa19%
13-Jun-2024 18:00Clear Sky31°C4 mph, SW5%10000m1008hPa13%
13-Jun-2024 21:00Clear Sky35°C9 mph, S0%10000m1006hPa9%
14-Jun-2024 00:00Clear Sky36°C7 mph, W0%10000m1004hPa9%
14-Jun-2024 03:00Broken Clouds31°C27 mph, W62%10000m1007hPa11%
14-Jun-2024 06:00Broken Clouds27°C18 mph, NW59%10000m1010hPa16%
14-Jun-2024 09:00Clear Sky23°C4 mph, NW0%10000m1012hPa24%
14-Jun-2024 12:00Clear Sky21°C2 mph, NW1%10000m1012hPa30%
14-Jun-2024 15:00Clear Sky25°C2 mph, S1%10000m1013hPa22%
14-Jun-2024 18:00Clear Sky29°C13 mph, S0%10000m1011hPa13%
14-Jun-2024 21:00Clear Sky33°C9 mph, SW0%10000m1008hPa9%
15-Jun-2024 00:00Clear Sky33°C29 mph, W1%10000m1006hPa8%
15-Jun-2024 03:00Scattered Clouds27°C27 mph, W34%10000m1009hPa15%
15-Jun-2024 06:00Broken Clouds23°C16 mph, W67%10000m1012hPa20%
15-Jun-2024 09:00Scattered Clouds20°C2 mph, W35%10000m1011hPa27%
15-Jun-2024 12:00Scattered Clouds17°C2 mph, NW30%10000m1011hPa31%
15-Jun-2024 15:00Clear Sky22°C7 mph, NW0%10000m1012hPa19%
15-Jun-2024 18:00Few Clouds25°C9 mph, W20%10000m1011hPa10%
15-Jun-2024 21:00Clear Sky28°C13 mph, NW9%10000m1009hPa9%
16-Jun-2024 00:00Clear Sky29°C11 mph, NW8%10000m1006hPa9%
16-Jun-2024 03:00Few Clouds26°C13 mph, N20%10000m1007hPa13%
16-Jun-2024 06:00Few Clouds20°C13 mph, N23%10000m1010hPa11%
16-Jun-2024 09:00Scattered Clouds17°C9 mph, N37%10000m1010hPa16%
16-Jun-2024 12:00Few Clouds15°C7 mph, N24%10000m1011hPa19%
16-Jun-2024 15:00Broken Clouds17°C9 mph, NE71%10000m1011hPa18%
16-Jun-2024 18:00Broken Clouds21°C2 mph, N52%10000m1008hPa13%
16-Jun-2024 21:00Broken Clouds25°C2 mph, SW71%10000m1005hPa11%
17-Jun-2024 00:00Overcast Clouds27°C2 mph, N86%10000m1001hPa10%
17-Jun-2024 03:00Overcast Clouds26°C4 mph, S85%10000m1000hPa12%
17-Jun-2024 06:00Scattered Clouds22°C16 mph, NW42%10000m1002hPa18%
17-Jun-2024 09:00Scattered Clouds19°C0 mph, SE39%10000m1001hPa23%
17-Jun-2024 12:00Scattered Clouds17°C2 mph, SE38%10000m1000hPa25%
17-Jun-2024 15:00Broken Clouds22°C11 mph, SW56%10000m999hPa18%
17-Jun-2024 18:00Scattered Clouds23°C25 mph, W28%10000m999hPa24%
17-Jun-2024 21:00Clear Sky25°C25 mph, NW8%10000m999hPa16%
18-Jun-2024 00:00Few Clouds22°C25 mph, NW20%10000m1001hPa20%